Time;durP1;ratioP1;P1;durP2;ratioP2;P2;SDS_P1;SDS_P2;PMS_P1;PMS_P2;Temp;Humidity;BMP_temperature;BMP_pressure;BME280_temperature;BME280_humidity;BME280_pressure;Samples;Min_cycle;Max_cycle;Signal;HPM_P1;HPM_P2
2021/05/23 00:02:17;;;;;;;7.05;5.18;;;15.10;58.50;;;;;;5057496;28;20013;-89
2021/05/23 00:04:44;;;;;;;7.35;5.22;;;15.00;58.50;;;;;;5057332;28;20070;-88
2021/05/23 00:07:11;;;;;;;10.70;5.68;;;15.00;58.70;;;;;;5058331;28;20104;-87
2021/05/23 00:09:38;;;;;;;8.95;7.43;;;14.90;59.20;;;;;;5058722;28;20116;-86
2021/05/23 00:12:06;;;;;;;7.30;5.87;;;14.90;59.10;;;;;;5038524;28;20021;-86
2021/05/23 00:14:33;;;;;;;12.50;6.18;;;14.90;59.20;;;;;;5056695;28;20345;-87
2021/05/23 00:16:59;;;;;;;7.90;5.63;;;14.90;59.00;;;;;;5056353;28;20052;-87
2021/05/23 00:19:25;;;;;;;9.15;5.20;;;14.90;59.00;;;;;;5039497;28;20017;-87
2021/05/23 00:21:51;;;;;;;11.88;5.63;;;15.00;59.20;;;;;;5057288;28;20483;-88
2021/05/23 00:24:17;;;;;;;7.93;4.80;;;15.00;59.10;;;;;;5043584;28;20028;-88
2021/05/23 00:26:43;;;;;;;11.63;4.88;;;14.90;59.00;;;;;;5059443;28;20032;-85
2021/05/23 00:29:09;;;;;;;8.00;4.25;;;14.90;59.00;;;;;;5059923;28;20407;-86
2021/05/23 00:31:39;;;;;;;6.22;4.13;;;14.90;58.90;;;;;;5058083;28;20021;-88
2021/05/23 00:34:04;;;;;;;5.47;4.15;;;14.90;59.00;;;;;;5057287;28;20492;-86
2021/05/23 00:36:31;;;;;;;5.40;3.67;;;14.90;59.20;;;;;;5060858;28;20052;-87
2021/05/23 00:38:59;;;;;;;5.95;4.03;;;14.90;59.20;;;;;;5067958;28;20041;-89
2021/05/23 00:41:25;;;;;;;8.00;4.38;;;14.80;59.20;;;;;;5039477;28;20032;-88
2021/05/23 00:43:51;;;;;;;6.32;4.20;;;14.80;59.40;;;;;;5058457;28;20096;-89
2021/05/23 00:46:17;;;;;;;5.75;4.15;;;14.80;59.50;;;;;;5057185;28;20045;-87
2021/05/23 00:48:43;;;;;;;6.10;4.13;;;14.80;59.60;;;;;;5056698;28;20028;-88
2021/05/23 00:51:09;;;;;;;8.38;4.00;;;14.70;59.80;;;;;;5056962;28;20032;-88
2021/05/23 00:53:35;;;;;;;4.32;3.58;;;14.70;60.00;;;;;;5057030;28;20398;-89
2021/05/23 00:56:01;;;;;;;9.40;4.57;;;14.70;60.00;;;;;;5060719;28;20025;-88
2021/05/23 00:58:27;;;;;;;12.65;4.68;;;14.70;60.10;;;;;;5044389;28;20056;-87
2021/05/23 01:00:53;;;;;;;6.13;4.35;;;14.60;60.10;;;;;;5056626;28;20063;-86
2021/05/23 01:03:31;;;;;;;6.00;3.80;;;14.60;60.30;;;;;;5057624;28;20036;-86
2021/05/23 01:05:59;;;;;;;7.18;4.28;;;14.60;60.40;;;;;;5058645;28;20021;-87
2021/05/23 01:08:27;;;;;;;8.20;3.95;;;14.60;60.60;;;;;;5058264;28;20394;-87
2021/05/23 01:10:55;;;;;;;;;;;14.50;60.70;;;;;;5040911;28;20013;-85
2021/05/23 01:13:55;;;;;;;6.43;4.30;;;14.50;60.30;;;;;;5059585;28;19905;-89
2021/05/23 01:16:48;;;;;;;8.32;4.40;;;14.50;60.90;;;;;;5057283;28;20024;-89
2021/05/23 01:19:32;;;;;;;6.70;4.45;;;14.50;61.30;;;;;;5045552;28;20029;-88
2021/05/23 01:22:24;;;;;;;7.53;5.22;;;14.50;61.20;;;;;;5060034;28;20033;-88
2021/05/23 01:25:07;;;;;;;8.05;4.82;;;14.40;61.30;;;;;;5025772;28;20035;-88
2021/05/23 01:27:37;;;;;;;9.75;5.57;;;14.40;61.60;;;;;;5058926;28;20028;-88
2021/05/23 01:30:09;;;;;;;12.43;5.35;;;14.40;61.70;;;;;;5061150;28;20163;-87
2021/05/23 01:32:36;;;;;;;13.32;6.57;;;14.40;61.80;;;;;;5062461;28;20035;-86
2021/05/23 01:35:08;;;;;;;15.70;8.02;;;14.40;62.20;;;;;;5043328;28;20029;-87
2021/05/23 01:37:36;;;;;;;11.18;7.85;;;14.40;62.60;;;;;;5055249;28;20037;-87
2021/05/23 01:40:04;;;;;;;13.15;7.53;;;14.50;62.70;;;;;;5057662;28;20067;-87
2021/05/23 01:42:31;;;;;;;15.50;7.85;;;14.50;62.70;;;;;;5057073;28;20036;-87
2021/05/23 01:44:58;;;;;;;11.88;8.38;;;14.50;62.70;;;;;;5057248;28;20021;-86
2021/05/23 01:47:24;;;;;;;12.73;8.05;;;14.60;63.60;;;;;;5056873;28;20086;-84
2021/05/23 01:49:50;;;;;;;18.55;10.15;;;14.60;62.80;;;;;;5057068;28;20059;-86
2021/05/23 01:52:16;;;;;;;18.17;9.45;;;14.60;63.00;;;;;;5057448;28;20032;-86
2021/05/23 01:54:42;;;;;;;17.35;9.80;;;14.60;63.10;;;;;;5056809;28;20040;-86
2021/05/23 01:57:07;;;;;;;18.75;11.05;;;14.60;63.20;;;;;;5054510;28;20023;-85
2021/05/23 01:59:33;;;;;;;17.13;11.35;;;14.60;63.30;;;;;;5055544;28;20143;-89
2021/05/23 02:01:59;;;;;;;20.88;11.52;;;14.60;63.10;;;;;;5056388;28;20028;-88
2021/05/23 02:04:25;;;;;;;24.80;12.45;;;14.70;63.30;;;;;;5054011;28;20021;-85
2021/05/23 02:06:51;;;;;;;27.20;13.43;;;14.70;63.30;;;;;;5061031;28;20074;-84
2021/05/23 02:09:17;;;;;;;22.58;13.35;;;14.70;63.30;;;;;;5061008;28;20032;-87
2021/05/23 02:11:43;;;;;;;22.27;13.15;;;14.80;63.40;;;;;;5066807;28;20381;-87
2021/05/23 02:14:10;;;;;;;16.70;11.55;;;14.80;63.40;;;;;;5042484;28;20545;-87
2021/05/23 02:16:36;;;;;;;24.67;14.02;;;14.80;63.30;;;;;;5072839;28;20021;-84
2021/05/23 02:19:02;;;;;;;22.13;13.13;;;14.80;63.20;;;;;;5072431;28;20085;-88
2021/05/23 02:21:28;;;;;;;17.63;10.82;;;14.80;63.30;;;;;;5060764;28;20124;-89
2021/05/23 02:23:56;;;;;;;24.70;12.48;;;14.80;62.80;;;;;;5063915;28;20025;-85
2021/05/23 02:26:22;;;;;;;21.77;10.98;;;14.80;63.20;;;;;;5067047;28;20013;-87
2021/05/23 02:28:49;;;;;;;20.90;12.27;;;14.90;62.90;;;;;;5058994;28;20200;-87
2021/05/23 02:31:15;;;;;;;21.20;10.68;;;14.90;63.20;;;;;;5055023;28;20013;-86
2021/05/23 02:33:40;;;;;;;21.73;11.68;;;14.90;62.50;;;;;;5055049;28;20413;-86
2021/05/23 02:36:07;;;;;;;19.08;11.23;;;14.90;62.60;;;;;;5054942;28;20371;-88
2021/05/23 02:38:33;;;;;;;21.33;11.80;;;15.00;62.20;;;;;;5033060;28;20087;-88
2021/05/23 02:40:58;;;;;;;20.95;11.07;;;15.00;62.20;;;;;;5052763;28;20413;-87
2021/05/23 02:43:25;;;;;;;22.20;10.35;;;15.10;62.20;;;;;;5054988;28;20036;-87
2021/05/23 02:45:51;;;;;;;25.95;12.65;;;15.00;62.20;;;;;;5055475;28;20056;-87
2021/05/23 02:48:18;;;;;;;15.60;9.95;;;15.10;62.20;;;;;;5055385;28;20029;-86
2021/05/23 02:50:48;;;;;;;17.57;10.33;;;15.20;61.90;;;;;;5055465;28;20016;-87
2021/05/23 02:53:14;;;;;;;16.88;10.73;;;15.30;61.90;;;;;;5055253;28;20071;-86
2021/05/23 02:55:43;;;;;;;14.20;9.20;;;15.40;61.40;;;;;;5040340;28;20017;-86
2021/05/23 02:58:11;;;;;;;16.75;10.10;;;15.50;60.50;;;;;;5054758;28;20052;-86
2021/05/23 03:00:37;;;;;;;12.07;9.82;;;15.60;60.40;;;;;;5035671;28;20390;-86
2021/05/23 03:03:04;;;;;;;16.88;10.25;;;15.60;60.20;;;;;;5035365;28;20544;-86
2021/05/23 03:05:30;;;;;;;16.15;9.60;;;15.60;60.60;;;;;;5054626;28;20025;-87
2021/05/23 03:07:56;;;;;;;19.13;8.30;;;15.80;60.40;;;;;;5055293;28;20100;-87
2021/05/23 03:10:35;;;;;;;16.10;7.75;;;15.80;59.40;;;;;;5054645;28;20025;-84
2021/05/23 03:13:03;;;;;;;15.18;8.70;;;15.80;59.40;;;;;;5054013;28;20021;-85
2021/05/23 03:15:30;;;;;;;15.23;8.25;;;15.80;59.50;;;;;;5055006;28;20052;-84
2021/05/23 03:17:57;;;;;;;14.90;8.30;;;15.80;59.20;;;;;;5054713;28;20017;-85
2021/05/23 03:20:24;;;;;;;16.45;7.72;;;15.80;59.10;;;;;;5054264;28;20036;-84
2021/05/23 03:22:53;;;;;;;13.27;8.15;;;15.90;59.70;;;;;;5054171;28;20024;-86
2021/05/23 03:25:19;;;;;;;14.77;7.93;;;16.00;58.80;;;;;;5053160;28;20560;-84
2021/05/23 03:27:46;;;;;;;12.38;7.85;;;16.10;59.20;;;;;;5040569;28;20079;-85
2021/05/23 03:30:15;;;;;;;8.85;7.72;;;16.20;58.70;;;;;;5053621;28;20018;-84
2021/05/23 03:32:41;;;;;;;12.25;6.88;;;16.30;58.30;;;;;;5053942;28;20021;-84
2021/05/23 03:35:08;;;;;;;12.20;6.95;;;16.50;58.00;;;;;;5053392;28;20028;-84
2021/05/23 03:37:35;;;;;;;16.00;6.00;;;16.50;57.80;;;;;;5053181;28;20021;-84
2021/05/23 03:40:01;;;;;;;12.45;7.18;;;16.50;57.80;;;;;;5052776;28;20029;-85
2021/05/23 03:42:27;;;;;;;12.45;6.82;;;16.50;57.00;;;;;;5041013;28;20152;-84
2021/05/23 03:44:53;;;;;;;9.93;5.78;;;16.50;57.00;;;;;;5050614;28;20032;-85
2021/05/23 03:47:18;;;;;;;11.23;6.78;;;16.60;57.00;;;;;;5025201;28;20029;-85
2021/05/23 03:49:44;;;;;;;13.35;6.82;;;16.60;57.00;;;;;;5049443;28;20025;-84
2021/05/23 03:52:11;;;;;;;7.82;4.88;;;16.70;56.10;;;;;;5053521;28;20043;-84
2021/05/23 03:54:38;;;;;;;12.40;5.82;;;16.70;56.10;;;;;;5053588;28;20029;-84
2021/05/23 03:57:05;;;;;;;10.50;5.63;;;16.90;56.70;;;;;;5053151;28;20025;-85
2021/05/23 03:59:31;;;;;;;10.20;6.50;;;17.00;56.70;;;;;;5054000;28;20120;-84
2021/05/23 04:01:57;;;;;;;12.23;5.30;;;17.00;56.10;;;;;;5056319;28;20025;-84
2021/05/23 04:04:23;;;;;;;12.68;5.95;;;17.10;56.20;;;;;;5056831;28;20067;-84
2021/05/23 04:06:50;;;;;;;12.20;6.40;;;17.10;56.30;;;;;;5044320;28;20025;-84
2021/05/23 04:09:18;;;;;;;13.32;6.82;;;17.20;56.40;;;;;;5055172;28;20021;-85
2021/05/23 04:11:48;;;;;;;15.18;6.25;;;17.30;55.50;;;;;;5046386;28;20018;-85
2021/05/23 04:14:14;;;;;;;14.65;5.82;;;17.30;56.30;;;;;;5055876;28;20544;-83
2021/05/23 04:16:40;;;;;;;14.48;5.95;;;17.50;56.50;;;;;;5057185;28;20029;-84
2021/05/23 04:19:06;;;;;;;13.23;5.05;;;17.50;55.10;;;;;;5056017;28;20102;-83
2021/05/23 04:21:33;;;;;;;12.82;4.80;;;17.60;55.30;;;;;;5038843;28;20486;-87
2021/05/23 04:23:59;;;;;;;14.15;5.25;;;17.80;54.80;;;;;;5057189;28;20458;-85
2021/05/23 04:26:25;;;;;;;8.98;4.97;;;17.80;54.40;;;;;;5026097;28;20115;-84
2021/05/23 04:28:51;;;;;;;15.95;4.93;;;17.80;54.90;;;;;;5055967;28;20047;-85
2021/05/23 04:31:17;;;;;;;12.57;5.68;;;17.90;54.90;;;;;;5056599;28;20028;-86
2021/05/23 04:33:43;;;;;;;10.30;4.72;;;18.00;54.40;;;;;;5056566;28;20021;-87
2021/05/23 04:36:09;;;;;;;7.30;4.38;;;18.00;54.10;;;;;;5055933;28;20033;-85
2021/05/23 04:38:34;;;;;;;8.50;4.68;;;18.00;54.00;;;;;;5034802;28;20125;-86
2021/05/23 04:41:00;;;;;;;13.82;4.82;;;18.00;53.10;;;;;;5052029;28;20024;-85
2021/05/23 04:43:26;;;;;;;8.80;4.97;;;18.00;53.70;;;;;;5056608;28;20025;-84
2021/05/23 04:45:52;;;;;;;11.13;4.32;;;18.00;52.80;;;;;;5057025;28;20021;-84
2021/05/23 04:48:18;;;;;;;7.13;3.70;;;18.00;52.40;;;;;;5055632;28;20017;-85
2021/05/23 04:50:44;;;;;;;5.47;3.22;;;17.90;52.00;;;;;;5055768;28;20040;-83
2021/05/23 04:53:09;;;;;;;7.82;4.10;;;17.90;51.80;;;;;;5036994;28;20033;-84
2021/05/23 04:55:35;;;;;;;15.30;4.15;;;17.90;51.30;;;;;;5055523;28;20040;-86
2021/05/23 04:58:03;;;;;;;6.45;3.15;;;17.90;52.20;;;;;;5041274;28;20091;-85
2021/05/23 05:00:29;;;;;;;5.78;3.58;;;18.30;51.10;;;;;;5049613;28;20502;-85
2021/05/23 05:02:55;;;;;;;6.35;3.17;;;18.80;49.10;;;;;;5051839;28;20033;-84
2021/05/23 05:05:23;;;;;;;6.38;3.45;;;19.50;47.30;;;;;;5069804;28;20024;-84
2021/05/23 05:07:48;;;;;;;;;;;20.20;46.90;;;;;;5078407;28;20036;-84
2021/05/23 05:10:14;;;;;;;4.80;2.35;;;20.80;44.30;;;;;;5073742;28;19905;-84
2021/05/23 05:12:40;;;;;;;4.43;2.55;;;21.20;41.50;;;;;;5053828;28;20025;-82
2021/05/23 05:15:08;;;;;;;5.05;2.80;;;21.50;41.70;;;;;;5054313;28;20025;-83
2021/05/23 05:17:34;;;;;;;5.32;2.75;;;22.00;42.20;;;;;;5037589;28;20020;-82
2021/05/23 05:20:02;;;;;;;7.63;2.90;;;23.00;39.60;;;;;;5054396;28;20041;-88
2021/05/23 05:22:28;;;;;;;6.10;3.03;;;23.10;38.30;;;;;;5054678;28;20025;-86
2021/05/23 05:24:54;;;;;;;4.50;2.85;;;23.70;38.80;;;;;;5042552;28;20040;-83
2021/05/23 05:27:23;;;;;;;5.50;2.75;;;24.30;36.50;;;;;;5053935;28;20037;-82
2021/05/23 05:29:49;;;;;;;5.10;2.35;;;24.00;35.90;;;;;;5048636;28;20483;-83
2021/05/23 05:32:14;;;;;;;5.60;1.83;;;24.10;36.60;;;;;;5034462;28;20079;-84
2021/05/23 05:34:41;;;;;;;6.05;2.17;;;24.50;35.40;;;;;;5023839;28;20029;-85
2021/05/23 05:37:07;;;;;;;7.53;2.08;;;24.20;35.50;;;;;;5024572;28;20022;-86
2021/05/23 05:39:33;;;;;;;3.30;1.80;;;24.30;35.00;;;;;;5034278;28;20044;-85
2021/05/23 05:41:58;;;;;;;5.28;2.25;;;25.20;35.10;;;;;;5010425;28;20025;-88
2021/05/23 05:44:25;;;;;;;5.18;1.75;;;25.30;33.70;;;;;;5015568;28;20071;-87
2021/05/23 05:46:51;;;;;;;3.70;2.10;;;25.60;33.30;;;;;;5034517;28;20429;-85
2021/05/23 05:49:17;;;;;;;2.90;1.90;;;25.70;32.90;;;;;;5036319;28;20467;-88
2021/05/23 05:51:43;;;;;;;5.68;1.60;;;25.60;32.90;;;;;;5012574;28;20545;-86
2021/05/23 05:54:09;;;;;;;4.00;1.63;;;25.20;32.80;;;;;;5030690;28;20052;-85
2021/05/23 05:56:37;;;;;;;6.55;1.98;;;25.40;33.40;;;;;;5031670;28;20029;-85
2021/05/23 05:59:04;;;;;;;4.80;1.75;;;26.10;32.70;;;;;;5015438;28;20038;-87
2021/05/23 06:01:30;;;;;;;4.80;1.52;;;26.40;31.90;;;;;;5005819;28;20026;-84
2021/05/23 06:03:56;;;;;;;4.78;1.50;;;26.50;31.60;;;;;;5021863;28;20108;-83
2021/05/23 06:06:23;;;;;;;5.78;1.83;;;26.40;32.00;;;;;;5035200;28;20040;-86
2021/05/23 06:08:49;;;;;;;5.05;1.70;;;26.50;31.80;;;;;;5036551;28;20075;-87
2021/05/23 06:11:15;;;;;;;3.80;1.58;;;26.80;31.90;;;;;;5034705;28;20051;-83
2021/05/23 06:13:40;;;;;;;5.78;1.92;;;27.20;31.60;;;;;;5019061;28;20029;-85
2021/05/23 06:16:06;;;;;;;2.65;1.85;;;28.30;32.00;;;;;;5038653;28;20388;-84
2021/05/23 06:18:32;;;;;;;8.15;1.85;;;28.90;30.00;;;;;;5053008;28;20085;-85
2021/05/23 06:20:58;;;;;;;2.67;1.60;;;28.80;30.20;;;;;;5051346;28;20013;-84
2021/05/23 06:23:24;;;;;;;4.50;1.30;;;29.70;29.70;;;;;;5019744;28;20035;-86
2021/05/23 06:25:50;;;;;;;6.88;1.50;;;29.60;29.20;;;;;;5036640;28;20017;-86
2021/05/23 06:28:16;;;;;;;4.50;1.75;;;29.90;29.20;;;;;;5040739;28;20050;-85
2021/05/23 06:30:42;;;;;;;13.75;2.13;;;30.80;28.90;;;;;;5031006;28;20025;-86
2021/05/23 06:33:08;;;;;;;2.20;1.40;;;30.70;29.00;;;;;;5035691;28;20130;-85
2021/05/23 06:35:34;;;;;;;6.53;1.17;;;31.60;28.20;;;;;;5034054;28;20371;-85
2021/05/23 06:38:00;;;;;;;2.90;1.38;;;30.50;27.70;;;;;;5033761;28;20028;-86
2021/05/23 06:40:26;;;;;;;4.57;1.30;;;28.70;29.10;;;;;;5015884;28;20032;-85
2021/05/23 06:42:51;;;;;;;4.60;1.70;;;28.50;29.40;;;;;;5033126;28;20100;-82
2021/05/23 06:45:17;;;;;;;5.50;1.60;;;28.50;29.70;;;;;;5034514;28;20025;-83
2021/05/23 06:47:44;;;;;;;2.28;1.23;;;28.90;29.90;;;;;;5021825;28;20033;-84
2021/05/23 06:50:11;;;;;;;1.48;1.35;;;30.10;28.90;;;;;;5014764;28;20049;-84
2021/05/23 06:52:37;;;;;;;2.83;1.25;;;30.10;27.90;;;;;;5033256;28;20026;-86
2021/05/23 06:55:04;;;;;;;2.05;1.20;;;28.90;28.70;;;;;;5019745;28;20017;-82
2021/05/23 06:57:31;;;;;;;6.68;1.27;;;29.00;29.30;;;;;;5033357;28;20116;-84
2021/05/23 06:59:57;;;;;;;3.05;1.30;;;29.40;28.10;;;;;;5016807;28;20476;-84
2021/05/23 07:02:23;;;;;;;2.75;1.20;;;29.80;27.90;;;;;;4995218;28;20041;-84
2021/05/23 07:04:49;;;;;;;3.47;1.40;;;28.00;28.20;;;;;;5027611;28;20036;-84
2021/05/23 07:07:15;;;;;;;4.05;1.13;;;27.00;29.40;;;;;;5030592;28;20033;-84
2021/05/23 07:09:42;;;;;;;4.63;1.33;;;27.30;29.60;;;;;;5003865;28;20033;-85
2021/05/23 07:12:08;;;;;;;2.83;0.98;;;27.30;29.10;;;;;;5033279;28;20033;-83
2021/05/23 07:14:34;;;;;;;2.77;1.20;;;26.60;28.80;;;;;;5033047;28;20094;-83
2021/05/23 07:17:00;;;;;;;4.20;1.63;;;27.30;29.40;;;;;;5036093;28;20342;-85
2021/05/23 07:19:26;;;;;;;3.92;1.55;;;28.70;29.00;;;;;;5040398;28;20029;-83
2021/05/23 07:21:52;;;;;;;2.63;1.40;;;30.20;27.70;;;;;;5046592;28;20087;-83
2021/05/23 07:24:18;;;;;;;3.43;1.20;;;31.00;26.90;;;;;;5033515;28;20088;-84
2021/05/23 07:26:44;;;;;;;3.37;1.07;;;31.60;26.90;;;;;;5040931;28;20103;-86
2021/05/23 07:29:10;;;;;;;2.07;1.33;;;31.10;26.20;;;;;;5038077;28;20092;-86
2021/05/23 07:31:36;;;;;;;4.70;1.17;;;30.10;26.70;;;;;;5032632;28;20033;-83
2021/05/23 07:34:02;;;;;;;6.95;2.00;;;29.60;27.10;;;;;;5032888;28;20041;-85
2021/05/23 07:36:28;;;;;;;8.88;2.10;;;29.90;27.60;;;;;;5035167;28;20114;-83
2021/05/23 07:38:54;;;;;;;5.90;1.33;;;31.20;27.10;;;;;;5040076;28;20042;-84
2021/05/23 07:41:21;;;;;;;2.00;1.15;;;32.10;26.30;;;;;;5039554;28;20056;-82
2021/05/23 07:43:47;;;;;;;1.58;0.93;;;33.10;26.20;;;;;;5036346;28;20029;-83
2021/05/23 07:46:14;;;;;;;4.50;1.00;;;33.20;25.60;;;;;;5018272;28;20026;-86
2021/05/23 07:48:40;;;;;;;4.47;1.35;;;33.00;25.50;;;;;;5036358;28;20021;-85
2021/05/23 07:51:06;;;;;;;6.63;1.40;;;32.50;25.80;;;;;;5036324;28;20075;-84
2021/05/23 07:53:32;;;;;;;9.53;1.93;;;31.90;26.00;;;;;;5031262;28;20034;-85
2021/05/23 07:55:57;;;;;;;4.72;1.90;;;32.40;26.50;;;;;;5017754;28;20479;-87
2021/05/23 07:58:24;;;;;;;2.70;1.30;;;33.60;25.80;;;;;;5025564;28;20033;-86
2021/05/23 08:00:53;;;;;;;2.75;1.42;;;34.50;25.50;;;;;;5012580;28;20060;-91
2021/05/23 08:03:18;;;;;;;4.30;1.17;;;34.30;25.00;;;;;;5024671;28;20060;-93
2021/05/23 08:05:44;;;;;;;4.13;1.10;;;33.10;25.20;;;;;;5035746;28;20014;-93
2021/05/23 08:08:10;;;;;;;3.50;1.50;;;32.70;25.10;;;;;;5028202;28;20029;-85
2021/05/23 08:10:36;;;;;;;1.93;1.10;;;32.10;26.20;;;;;;5026450;28;20028;-89
2021/05/23 08:13:02;;;;;;;2.67;1.30;;;32.80;26.00;;;;;;5043065;28;20380;-87
2021/05/23 08:15:28;;;;;;;4.57;1.27;;;32.10;25.80;;;;;;5037825;28;20037;-85
2021/05/23 08:17:54;;;;;;;3.13;1.10;;;31.60;26.10;;;;;;5021430;28;20271;-89
2021/05/23 08:20:21;;;;;;;4.10;1.25;;;32.20;26.20;;;;;;5026808;28;20038;-89
2021/05/23 08:22:47;;;;;;;5.13;1.27;;;33.30;25.30;;;;;;5034490;28;20025;-90
2021/05/23 08:25:13;;;;;;;4.40;1.70;;;32.70;25.00;;;;;;5047586;28;20084;-89
2021/05/23 08:27:40;;;;;;;2.45;1.35;;;32.40;25.10;;;;;;5041749;28;22006;-89
2021/05/23 08:30:09;;;;;;;;;;;33.50;25.60;;;;;;5052180;28;20037;-90
2021/05/23 08:32:36;;;;;;;5.32;1.30;;;33.80;25.00;;;;;;5064139;28;19904;-87
2021/05/23 08:35:07;;;;;;;4.55;1.27;;;32.50;25.50;;;;;;5039688;28;20024;-89
2021/05/23 08:37:33;;;;;;;4.57;1.35;;;30.80;26.30;;;;;;5046833;28;20128;-86
2021/05/23 08:39:59;;;;;;;2.10;1.20;;;30.70;26.50;;;;;;5034886;28;20390;-86
2021/05/23 08:42:25;;;;;;;2.17;1.03;;;30.50;26.90;;;;;;5053319;28;20502;-86
2021/05/23 08:44:51;;;;;;;3.47;1.43;;;31.00;26.50;;;;;;5052896;28;20025;-86
2021/05/23 08:47:17;;;;;;;3.63;1.43;;;30.20;26.70;;;;;;5053316;28;20022;-86
2021/05/23 08:49:50;;;;;;;11.80;2.67;;;30.40;28.00;;;;;;5064379;28;20024;-92
2021/05/23 08:52:18;;;;;;;4.35;1.63;;;30.70;28.20;;;;;;5044144;28;20082;-91
2021/05/23 08:54:56;;;;;;;4.43;1.83;;;32.20;27.10;;;;;;5038393;28;20104;-93
2021/05/23 08:57:23;;;;;;;4.40;1.60;;;33.00;26.70;;;;;;5032982;28;20497;-90
2021/05/23 08:59:50;;;;;;;7.03;1.55;;;34.30;25.30;;;;;;5059974;28;20041;-91
2021/05/23 09:02:15;;;;;;;4.00;1.20;;;34.10;25.20;;;;;;5059107;28;20017;-90
2021/05/23 09:04:52;;;;;;;6.20;2.20;;;33.80;25.10;;;;;;5062494;28;20027;-93
2021/05/23 09:07:20;;;;;;;;;;;32.80;25.60;;;;;;5066716;28;20032;-92
2021/05/23 09:09:48;;;;;;;6.90;1.20;;;31.10;26.10;;;;;;5058831;28;19913;-87
2021/05/23 09:12:17;;;;;;;5.10;1.27;;;29.90;27.10;;;;;;5057455;28;20022;-85
2021/05/23 09:14:49;;;;;;;5.45;1.63;;;30.20;27.30;;;;;;5063143;28;20438;-91
2021/05/23 09:17:23;;;;;;;3.60;1.67;;;28.70;27.50;;;;;;5053631;28;20017;-88
2021/05/23 09:19:51;;;;;;;10.27;2.20;;;27.30;28.80;;;;;;5052809;28;20381;-90
2021/05/23 09:22:23;;;;;;;3.08;1.60;;;27.00;29.80;;;;;;5034963;28;20104;-89
2021/05/23 09:25:01;;;;;;;2.72;1.48;;;27.00;30.10;;;;;;5052911;28;20021;-85
2021/05/23 09:27:29;;;;;;;2.72;1.00;;;26.80;29.30;;;;;;5054285;28;20035;-86
2021/05/23 09:30:25;;;;;;;3.97;1.35;;;26.80;29.70;;;;;;5043338;28;20433;-89
2021/05/23 09:32:53;;;;;;;3.47;1.30;;;27.10;29.00;;;;;;4985978;28;20058;-87
2021/05/23 09:35:21;;;;;;;4.53;1.80;;;26.20;29.60;;;;;;4958700;29;20066;-88
2021/05/23 09:38:04;;;;;;;1.15;0.95;;;25.70;30.30;;;;;;4989621;28;20098;-88
2021/05/23 09:40:36;;;;;;;2.55;1.08;;;25.10;30.30;;;;;;4991963;28;20126;-88
2021/05/23 09:43:03;;;;;;;5.18;1.30;;;24.90;31.40;;;;;;4982753;28;20118;-86
2021/05/23 09:45:42;;;;;;;4.05;1.30;;;25.40;31.10;;;;;;4982400;28;20031;-88
2021/05/23 09:48:25;;;;;;;6.70;1.98;;;25.90;30.70;;;;;;4975518;28;20031;-89
2021/05/23 09:50:56;;;;;;;4.43;1.45;;;26.90;30.30;;;;;;4975954;28;20037;-90
2021/05/23 09:53:27;;;;;;;3.20;1.08;;;27.60;29.20;;;;;;4975381;28;20030;-90
2021/05/23 09:56:01;;;;;;;4.78;1.45;;;27.60;28.90;;;;;;4975641;28;20507;-90
2021/05/23 09:58:28;;;;;;;3.20;1.20;;;27.00;29.30;;;;;;4974592;28;20481;-86
2021/05/23 10:00:54;;;;;;;3.30;1.20;;;26.50;30.00;;;;;;4962223;28;20031;-90
2021/05/23 10:03:31;;;;;;;6.10;1.27;;;26.50;29.90;;;;;;4979008;28;20121;-84
2021/05/23 10:05:58;;;;;;;4.63;1.13;;;26.50;30.10;;;;;;4965040;28;20019;-84
2021/05/23 10:08:26;;;;;;;5.38;1.70;;;27.00;29.60;;;;;;4980466;28;20472;-89
2021/05/23 10:10:53;;;;;;;2.97;1.60;;;27.10;29.90;;;;;;5042426;28;20239;-89
2021/05/23 10:13:20;;;;;;;3.83;1.30;;;27.90;29.30;;;;;;5063192;28;20036;-86
2021/05/23 10:15:46;;;;;;;11.80;1.52;;;28.80;28.30;;;;;;5074199;28;20024;-88
2021/05/23 10:18:12;;;;;;;1.77;1.02;;;28.80;27.90;;;;;;5073691;28;20024;-89
2021/05/23 10:20:39;;;;;;;5.20;1.20;;;28.20;27.80;;;;;;5043658;28;20504;-88
2021/05/23 10:23:22;;;;;;;9.07;1.50;;;27.90;28.40;;;;;;5063293;28;20029;-89
2021/05/23 10:25:50;;;;;;;3.55;1.10;;;28.10;27.70;;;;;;5058899;28;20068;-87
2021/05/23 10:28:18;;;;;;;6.97;1.30;;;27.70;27.90;;;;;;5048267;28;20431;-87
2021/05/23 10:30:52;;;;;;;3.78;1.52;;;27.40;28.00;;;;;;5024020;28;20026;-88
2021/05/23 10:33:19;;;;;;;4.05;1.38;;;27.30;28.30;;;;;;4989563;28;20040;-89
2021/05/23 10:35:46;;;;;;;;;;;26.80;28.30;;;;;;5007540;28;20022;-88
2021/05/23 10:38:15;;;;;;;5.25;1.60;;;25.80;28.90;;;;;;5032265;28;20003;-86
2021/05/23 10:40:55;;;;;;;5.93;1.67;;;25.40;30.00;;;;;;5038039;28;20100;-90
2021/05/23 10:43:24;;;;;;;3.88;1.27;;;25.60;29.90;;;;;;5036672;28;20060;-89
2021/05/23 10:46:01;;;;;;;5.18;1.48;;;25.30;29.80;;;;;;5018465;28;20044;-90
2021/05/23 10:48:27;;;;;;;4.38;1.52;;;24.90;30.00;;;;;;5021328;28;20030;-91
2021/05/23 10:50:53;;;;;;;4.10;1.40;;;24.80;30.00;;;;;;5036936;28;20060;-89
2021/05/23 10:53:19;;;;;;;4.18;1.40;;;24.50;29.90;;;;;;5036616;28;20025;-90
2021/05/23 10:55:55;;;;;;;3.38;1.58;;;24.20;30.70;;;;;;5036595;28;20028;-91
2021/05/23 10:58:26;;;;;;;6.05;1.63;;;24.00;30.80;;;;;;5037416;28;20028;-87
2021/05/23 11:00:55;;;;;;;4.45;1.90;;;24.20;30.00;;;;;;5036568;28;20018;-86
2021/05/23 11:03:23;;;;;;;3.47;1.45;;;24.30;30.00;;;;;;5017758;28;20091;-89
2021/05/23 11:06:06;;;;;;;5.05;1.55;;;24.40;30.00;;;;;;5026891;28;20017;-87
2021/05/23 11:08:51;;;;;;;3.67;1.70;;;24.60;30.30;;;;;;5022485;28;20030;-87
2021/05/23 11:11:20;;;;;;;5.10;2.70;;;24.80;30.00;;;;;;5033866;28;20028;-88
2021/05/23 11:13:46;;;;;;;6.13;1.48;;;24.80;30.00;;;;;;5017163;28;20061;-88
2021/05/23 11:16:16;;;;;;;4.20;1.85;;;24.80;30.00;;;;;;5035302;28;20018;-89
2021/05/23 11:18:43;;;;;;;5.45;1.42;;;24.80;29.90;;;;;;5036194;28;20435;-89
2021/05/23 11:21:12;;;;;;;4.23;1.50;;;24.90;30.10;;;;;;5039921;28;20028;-90
2021/05/23 11:23:56;;;;;;;3.92;1.75;;;24.80;30.30;;;;;;5041819;28;20339;-87
2021/05/23 11:26:25;;;;;;;4.05;2.38;;;25.00;30.20;;;;;;5022444;28;20075;-88
2021/05/23 11:28:55;;;;;;;6.07;2.35;;;24.90;30.90;;;;;;5041351;28;20080;-91
2021/05/23 11:31:35;;;;;;;2.90;1.20;;;25.00;30.70;;;;;;5057763;28;20013;-90
2021/05/23 11:34:04;;;;;;;3.20;1.38;;;24.90;30.20;;;;;;5058965;28;20028;-89
2021/05/23 11:36:37;;;;;;;4.72;1.95;;;24.60;30.40;;;;;;5058417;28;20025;-88
2021/05/23 11:39:11;;;;;;;5.05;1.50;;;24.60;31.30;;;;;;5058857;28;20025;-89
2021/05/23 11:41:48;;;;;;;4.80;1.73;;;24.50;30.70;;;;;;5051453;28;20021;-86
2021/05/23 11:44:15;;;;;;;3.30;1.73;;;24.40;31.10;;;;;;5048224;28;20060;-85
2021/05/23 11:46:50;;;;;;;4.05;1.50;;;24.60;31.60;;;;;;5045279;28;20104;-83
2021/05/23 11:49:20;;;;;;;3.00;1.70;;;24.80;31.20;;;;;;5052442;28;20494;-82
2021/05/23 11:51:47;;;;;;;3.85;1.35;;;24.90;30.50;;;;;;5051738;28;20104;-84
2021/05/23 11:54:14;;;;;;;5.38;2.03;;;24.90;30.60;;;;;;5039056;28;20029;-83
2021/05/23 11:56:41;;;;;;;2.57;1.40;;;25.00;30.80;;;;;;5042002;28;20021;-83
2021/05/23 11:59:08;;;;;;;4.05;1.60;;;25.20;30.00;;;;;;5053009;28;20029;-85
2021/05/23 12:01:54;;;;;;;2.13;1.23;;;25.00;29.90;;;;;;5045707;28;20029;-84
2021/05/23 12:04:20;;;;;;;4.22;1.92;;;24.60;30.40;;;;;;5046613;28;20364;-87
2021/05/23 12:06:56;;;;;;;4.55;1.42;;;24.50;30.80;;;;;;5030203;28;20032;-86
2021/05/23 12:09:28;;;;;;;9.60;2.08;;;24.60;31.00;;;;;;5056853;28;20028;-88
2021/05/23 12:11:56;;;;;;;4.13;1.75;;;24.70;30.00;;;;;;5057946;28;20028;-87
2021/05/23 12:14:33;;;;;;;5.72;3.00;;;24.60;30.70;;;;;;5039123;28;20083;-89
2021/05/23 12:17:19;;;;;;;3.17;1.30;;;24.80;31.10;;;;;;5054836;28;20032;-89
2021/05/23 12:19:56;;;;;;;2.97;1.70;;;25.00;30.70;;;;;;5045022;28;20033;-86
2021/05/23 12:22:36;;;;;;;4.07;1.40;;;25.00;31.10;;;;;;5065563;28;20269;-85
2021/05/23 12:25:12;;;;;;;1.67;1.05;;;24.80;30.80;;;;;;5066001;28;20376;-88
2021/05/23 12:28:00;;;;;;;3.40;1.65;;;24.40;31.70;;;;;;5058790;28;20316;-89
2021/05/23 12:30:30;;;;;;;1.80;0.90;;;24.20;31.70;;;;;;4941278;29;20091;-88
2021/05/23 12:33:09;;;;;;;4.95;1.83;;;23.90;32.00;;;;;;4949496;29;20063;-88
2021/05/23 12:35:40;;;;;;;4.93;1.33;;;23.70;33.40;;;;;;4956318;29;20122;-87
2021/05/23 12:38:18;;;;;;;4.68;1.83;;;24.00;32.00;;;;;;4948172;29;20023;-87
2021/05/23 12:40:50;;;;;;;5.90;2.70;;;24.10;32.10;;;;;;4958538;29;20023;-89
2021/05/23 12:43:17;;;;;;;2.55;1.45;;;24.30;32.90;;;;;;4929591;29;20022;-89
2021/05/23 12:45:44;;;;;;;;;;;24.70;31.90;;;;;;4958045;28;20055;-92
2021/05/23 12:48:12;;;;;;;3.03;1.65;;;24.80;31.50;;;;;;4954773;29;20363;-91
2021/05/23 12:50:43;;;;;;;2.70;1.23;;;24.80;31.20;;;;;;4957454;29;20043;-90
2021/05/23 12:53:09;;;;;;;4.72;1.25;;;24.60;30.50;;;;;;4958320;29;20106;-87